Time;durP1;ratioP1;P1;durP2;ratioP2;P2;SDS_P1;SDS_P2;PMS_P1;PMS_P2;Temp;Humidity;BMP_temperature;BMP_pressure;BME280_temperature;BME280_humidity;BME280_pressure;Samples;Min_cycle;Max_cycle;Signal;HPM_P1;HPM_P2
2023/03/13 00:01:56;;;;;;;3.83;2.60;;;17.40;48.20;;;;;;4889937;29;20248;-83
2023/03/13 00:04:23;;;;;;;3.92;2.50;;;17.40;48.20;;;;;;4888738;29;20249;-83
2023/03/13 00:06:50;;;;;;;4.05;2.22;;;17.40;48.40;;;;;;4883774;29;20218;-83
2023/03/13 00:09:19;;;;;;;3.95;2.22;;;17.40;48.40;;;;;;4883248;29;20232;-83
2023/03/13 00:11:46;;;;;;;5.45;2.35;;;17.30;48.40;;;;;;4883785;29;20217;-83
2023/03/13 00:14:13;;;;;;;5.78;3.03;;;17.30;48.60;;;;;;4884765;29;20200;-83
2023/03/13 00:16:40;;;;;;;4.05;2.30;;;17.20;48.50;;;;;;4884164;29;20229;-83
2023/03/13 00:19:07;;;;;;;4.03;2.10;;;17.20;48.60;;;;;;4884329;29;20201;-83
2023/03/13 00:21:36;;;;;;;2.88;2.40;;;17.20;48.60;;;;;;4884206;29;20683;-83
2023/03/13 00:24:03;;;;;;;4.10;2.50;;;17.20;48.60;;;;;;4884071;29;20221;-83
2023/03/13 00:26:32;;;;;;;2.80;2.10;;;17.20;48.70;;;;;;4884040;29;20229;-83
2023/03/13 00:28:59;;;;;;;5.90;2.83;;;17.20;48.70;;;;;;4884318;29;20217;-83
2023/03/13 00:31:26;;;;;;;5.25;2.60;;;17.10;48.70;;;;;;4884435;29;20209;-83
2023/03/13 00:33:54;;;;;;;3.78;2.72;;;17.20;48.80;;;;;;4885495;29;20199;-83
2023/03/13 00:36:22;;;;;;;4.35;2.65;;;17.10;48.90;;;;;;4883685;29;20229;-83
2023/03/13 00:38:49;;;;;;;5.22;2.47;;;17.10;48.80;;;;;;4883971;29;20246;-83
2023/03/13 00:41:17;;;;;;;6.05;2.88;;;17.10;49.10;;;;;;4885018;29;20204;-83
2023/03/13 00:43:46;;;;;;;9.18;3.20;;;17.10;49.10;;;;;;4883556;29;20232;-83
2023/03/13 00:46:14;;;;;;;9.63;3.50;;;17.10;49.30;;;;;;4883743;29;20617;-83
2023/03/13 00:48:41;;;;;;;4.95;2.78;;;17.10;49.50;;;;;;4884150;29;20205;-83
2023/03/13 00:51:08;;;;;;;5.97;3.47;;;17.10;49.30;;;;;;4882891;29;20209;-83
2023/03/13 00:53:35;;;;;;;6.82;3.05;;;17.00;49.30;;;;;;4883321;29;20205;-83
2023/03/13 00:56:04;;;;;;;5.85;2.75;;;17.10;49.40;;;;;;4882885;29;20229;-84
2023/03/13 00:58:32;;;;;;;7.82;2.75;;;17.10;49.40;;;;;;4883744;29;20205;-83
2023/03/13 01:01:08;;;;;;;6.95;3.15;;;17.10;49.50;;;;;;4883493;29;20232;-83
2023/03/13 01:03:36;;;;;;;5.90;2.60;;;17.10;49.50;;;;;;4882781;29;20569;-83
2023/03/13 01:06:04;;;;;;;4.93;2.65;;;17.10;49.50;;;;;;4882645;29;20242;-83
2023/03/13 01:08:31;;;;;;;6.32;3.00;;;17.10;49.50;;;;;;4883325;29;20265;-83
2023/03/13 01:10:59;;;;;;;4.82;2.92;;;17.10;49.50;;;;;;4882736;29;20198;-83
2023/03/13 01:13:27;;;;;;;4.82;2.65;;;17.10;49.40;;;;;;4866489;29;20221;-83
2023/03/13 01:15:54;;;;;;;5.10;2.60;;;17.10;49.40;;;;;;4882366;29;20701;-83
2023/03/13 01:18:23;;;;;;;6.55;2.83;;;17.10;49.50;;;;;;4867489;29;20212;-83
2023/03/13 01:20:50;;;;;;;6.88;3.08;;;17.10;49.60;;;;;;4882088;29;20212;-84
2023/03/13 01:23:18;;;;;;;4.00;2.83;;;17.10;52.20;;;;;;4882200;29;20627;-83
2023/03/13 01:25:48;;;;;;;4.55;2.45;;;17.10;52.30;;;;;;4881681;29;20236;-83
2023/03/13 01:28:14;;;;;;;6.10;2.70;;;17.10;52.30;;;;;;4882422;29;20202;-83
2023/03/13 01:30:42;;;;;;;5.38;2.60;;;17.00;52.30;;;;;;4880360;29;20205;-80
2023/03/13 01:33:09;;;;;;;5.10;2.35;;;17.10;52.10;;;;;;4881117;29;20201;-80
2023/03/13 01:35:37;;;;;;;5.05;2.58;;;17.00;51.80;;;;;;4880995;29;20236;-80
2023/03/13 01:38:06;;;;;;;4.35;2.50;;;17.10;51.80;;;;;;4881497;29;20699;-80
2023/03/13 01:40:39;;;;;;;5.10;2.45;;;17.10;51.70;;;;;;4881898;29;20634;-83
2023/03/13 01:43:16;;;;;;;4.40;2.38;;;17.10;51.50;;;;;;4882820;29;20601;-83
2023/03/13 01:46:01;;;;;;;4.15;2.40;;;17.00;51.10;;;;;;4865434;29;20339;-83
2023/03/13 01:48:40;;;;;;;4.55;2.30;;;17.10;51.20;;;;;;4880538;29;20194;-83
2023/03/13 01:51:10;;;;;;;3.95;2.50;;;17.10;51.30;;;;;;4880894;29;20197;-83
2023/03/13 01:53:39;;;;;;;4.40;2.38;;;17.00;51.00;;;;;;4881559;29;20190;-83
2023/03/13 01:56:10;;;;;;;4.03;2.47;;;17.00;51.00;;;;;;4881455;29;20217;-83
2023/03/13 01:58:37;;;;;;;5.30;2.45;;;17.00;51.00;;;;;;4880601;29;20205;-83
2023/03/13 02:01:05;;;;;;;4.57;2.33;;;17.00;50.90;;;;;;4864934;29;20649;-83
2023/03/13 02:03:32;;;;;;;5.50;2.60;;;17.00;50.80;;;;;;4881430;29;20228;-83
2023/03/13 02:05:59;;;;;;;5.03;2.22;;;17.00;51.30;;;;;;4883752;29;20229;-83
2023/03/13 02:08:30;;;;;;;3.83;2.40;;;17.00;50.70;;;;;;4882502;29;20212;-83
2023/03/13 02:11:01;;;;;;;3.92;1.95;;;17.00;50.70;;;;;;4882658;29;20202;-83
2023/03/13 02:13:29;;;;;;;4.70;2.45;;;17.00;50.60;;;;;;4882354;29;20206;-83
2023/03/13 02:15:56;;;;;;;4.55;2.45;;;16.90;50.60;;;;;;4882353;29;20288;-83
2023/03/13 02:18:24;;;;;;;3.13;2.20;;;16.90;50.50;;;;;;4881989;29;20214;-83
2023/03/13 02:20:54;;;;;;;4.03;2.15;;;16.90;50.50;;;;;;4881532;29;20215;-83
2023/03/13 02:23:24;;;;;;;4.32;2.40;;;16.90;50.50;;;;;;4880844;29;20197;-83
2023/03/13 02:25:53;;;;;;;3.92;2.40;;;16.90;50.50;;;;;;4881058;29;20680;-83
2023/03/13 02:28:27;;;;;;;3.58;2.40;;;16.90;50.40;;;;;;4880878;29;20296;-83
2023/03/13 02:30:55;;;;;;;3.28;1.95;;;16.90;50.50;;;;;;4880591;29;20720;-83
2023/03/13 02:33:22;;;;;;;4.75;2.30;;;16.90;50.40;;;;;;4881528;29;20587;-83
2023/03/13 02:35:49;;;;;;;3.40;2.10;;;16.80;50.30;;;;;;4881145;29;20217;-83
2023/03/13 02:38:21;;;;;;;3.63;2.25;;;16.90;50.40;;;;;;4880909;29;20789;-83
2023/03/13 02:40:48;;;;;;;3.22;2.05;;;16.90;50.40;;;;;;4881138;29;20208;-83
2023/03/13 02:43:19;;;;;;;3.17;2.30;;;16.80;50.20;;;;;;4881233;29;20606;-83
2023/03/13 02:46:04;;;;;;;4.10;2.50;;;16.90;50.40;;;;;;4881922;29;20249;-83
2023/03/13 02:48:35;;;;;;;4.50;2.47;;;16.80;50.30;;;;;;4882249;29;20722;-83
2023/03/13 02:51:05;;;;;;;4.45;2.20;;;16.80;50.20;;;;;;4882098;29;20212;-83
2023/03/13 02:53:32;;;;;;;4.30;2.30;;;16.80;50.30;;;;;;4882141;29;20296;-83
2023/03/13 02:55:59;;;;;;;4.05;2.00;;;16.80;50.30;;;;;;4881394;29;20755;-83
2023/03/13 02:58:35;;;;;;;4.53;2.15;;;16.80;50.40;;;;;;4880980;29;20228;-83
2023/03/13 03:01:06;;;;;;;2.67;2.20;;;16.80;50.30;;;;;;4883744;29;20201;-83
2023/03/13 03:03:35;;;;;;;2.97;2.00;;;16.80;50.30;;;;;;4885420;29;20201;-83
2023/03/13 03:06:02;;;;;;;4.65;2.35;;;16.80;50.40;;;;;;4884747;29;20700;-83
2023/03/13 03:08:29;;;;;;;2.65;1.83;;;16.80;50.30;;;;;;4885380;29;20205;-83
2023/03/13 03:10:56;;;;;;;3.55;1.80;;;16.70;50.20;;;;;;4886078;29;20208;-83
2023/03/13 03:13:24;;;;;;;3.05;2.00;;;16.70;50.10;;;;;;4867649;29;20205;-83
2023/03/13 03:15:52;;;;;;;3.63;2.30;;;16.80;50.10;;;;;;4883156;29;20609;-83
2023/03/13 03:18:19;;;;;;;2.80;1.75;;;16.80;49.90;;;;;;4883624;29;20209;-83
2023/03/13 03:20:47;;;;;;;2.45;1.90;;;16.80;49.80;;;;;;4884077;29;20204;-83
2023/03/13 03:23:15;;;;;;;3.92;2.20;;;16.80;49.70;;;;;;4884229;29;20205;-83
2023/03/13 03:25:45;;;;;;;3.17;1.85;;;16.80;49.60;;;;;;4883815;29;20236;-83
2023/03/13 03:28:13;;;;;;;4.05;1.90;;;16.80;49.50;;;;;;4899774;29;20284;-83
2023/03/13 03:30:42;;;;;;;3.90;2.10;;;16.80;49.50;;;;;;4885001;29;20202;-83
2023/03/13 03:33:10;;;;;;;3.00;2.05;;;16.80;50.00;;;;;;4884052;29;20208;-83
2023/03/13 03:35:39;;;;;;;3.72;2.00;;;16.80;49.50;;;;;;4883988;29;20221;-83
2023/03/13 03:38:07;;;;;;;4.18;1.92;;;16.80;49.40;;;;;;4884101;29;20213;-83
2023/03/13 03:40:35;;;;;;;3.47;2.05;;;16.80;49.50;;;;;;4883719;29;20197;-83
2023/03/13 03:43:02;;;;;;;3.17;1.83;;;16.80;49.50;;;;;;4883983;29;20201;-83
2023/03/13 03:45:29;;;;;;;3.05;1.88;;;16.80;49.50;;;;;;4883448;29;20229;-84
2023/03/13 03:48:00;;;;;;;2.67;1.88;;;16.80;49.50;;;;;;4882955;29;20383;-84
2023/03/13 03:50:29;;;;;;;3.10;1.88;;;16.80;49.50;;;;;;4884501;29;20197;-84
2023/03/13 03:53:08;;;;;;;4.55;1.90;;;16.80;49.50;;;;;;4887006;29;20641;-84
2023/03/13 03:55:35;;;;;;;2.95;1.80;;;16.80;49.50;;;;;;4883293;29;20252;-84
2023/03/13 03:58:03;;;;;;;3.25;1.90;;;16.80;49.50;;;;;;4883930;29;20228;-84
2023/03/13 04:00:53;;;;;;;3.90;1.73;;;16.80;49.50;;;;;;4882771;29;20669;-84
2023/03/13 04:03:20;;;;;;;2.85;2.03;;;16.80;49.50;;;;;;4883428;29;20284;-84
2023/03/13 04:05:48;;;;;;;3.13;1.80;;;16.80;49.50;;;;;;4884698;29;20237;-84
2023/03/13 04:08:16;;;;;;;4.00;1.70;;;16.80;49.60;;;;;;4868341;29;20202;-83
2023/03/13 04:10:43;;;;;;;2.30;1.63;;;16.90;49.70;;;;;;4898597;29;20683;-83
2023/03/13 04:13:10;;;;;;;1.60;1.45;;;16.80;49.60;;;;;;4883167;29;20613;-83
2023/03/13 04:15:38;;;;;;;2.35;1.70;;;16.80;49.70;;;;;;4883432;29;20708;-83
2023/03/13 04:18:06;;;;;;;3.67;1.70;;;16.80;49.80;;;;;;4883640;29;20202;-83
2023/03/13 04:20:33;;;;;;;3.42;1.70;;;16.80;49.90;;;;;;4887459;29;20208;-84
2023/03/13 04:23:01;;;;;;;3.78;1.60;;;16.80;50.00;;;;;;4890056;29;20213;-83
2023/03/13 04:25:29;;;;;;;2.72;1.60;;;16.80;50.00;;;;;;4888747;29;20237;-83
2023/03/13 04:27:59;;;;;;;2.92;1.70;;;16.80;50.00;;;;;;4890093;29;20194;-83
2023/03/13 04:30:33;;;;;;;1.95;1.35;;;16.80;50.00;;;;;;4891758;29;20217;-83
2023/03/13 04:33:19;;;;;;;3.15;1.60;;;16.80;50.10;;;;;;4895742;29;20238;-83
2023/03/13 04:36:09;;;;;;;3.00;1.40;;;16.90;49.90;;;;;;4880093;29;20222;-83
2023/03/13 04:39:13;;;;;;;3.63;1.75;;;16.90;49.90;;;;;;4876123;29;20208;-83
2023/03/13 04:42:12;;;;;;;1.83;1.50;;;17.00;49.80;;;;;;4873235;29;20230;-83
2023/03/13 04:44:52;;;;;;;2.00;1.40;;;17.00;49.60;;;;;;4892617;29;20241;-83
2023/03/13 04:47:33;;;;;;;2.13;1.40;;;17.10;49.50;;;;;;4885156;29;20201;-83
2023/03/13 04:50:12;;;;;;;2.08;1.38;;;17.10;49.40;;;;;;4882154;29;20208;-83
2023/03/13 04:52:47;;;;;;;2.33;1.60;;;17.10;49.30;;;;;;4882913;29;20618;-83
2023/03/13 04:55:32;;;;;;;2.33;1.85;;;17.20;49.30;;;;;;4882127;29;20229;-83
2023/03/13 04:58:20;;;;;;;2.28;1.42;;;17.20;49.20;;;;;;4882415;29;20227;-83
2023/03/13 05:01:08;;;;;;;1.52;1.42;;;17.20;49.10;;;;;;4865873;29;20248;-82
2023/03/13 05:03:52;;;;;;;2.45;1.50;;;17.30;49.30;;;;;;4894525;29;20206;-83
2023/03/13 05:06:38;;;;;;;1.98;1.60;;;17.20;49.10;;;;;;4882908;29;20281;-79
2023/03/13 05:09:25;;;;;;;2.00;1.50;;;17.30;49.00;;;;;;4882345;29;20206;-83
2023/03/13 05:12:04;;;;;;;1.98;1.35;;;17.30;49.10;;;;;;4880959;29;20193;-79
2023/03/13 05:14:52;;;;;;;1.98;1.35;;;17.30;49.10;;;;;;4881870;29;20265;-80
2023/03/13 05:17:25;;;;;;;2.10;1.40;;;17.40;49.30;;;;;;4882100;29;20237;-80
2023/03/13 05:20:22;;;;;;;2.92;1.50;;;17.30;49.50;;;;;;4881209;29;20257;-80
2023/03/13 05:23:27;;;;;;;3.15;1.77;;;17.30;49.50;;;;;;4867538;29;20205;-80
2023/03/13 05:26:24;;;;;;;1.92;1.50;;;17.30;49.90;;;;;;4859840;29;20306;-81
2023/03/13 05:29:11;;;;;;;1.48;1.38;;;17.40;49.70;;;;;;4885269;29;20679;-80
2023/03/13 05:31:56;;;;;;;2.05;1.33;;;17.40;50.20;;;;;;4889136;29;20556;-80
2023/03/13 05:34:38;;;;;;;1.83;1.40;;;17.40;50.10;;;;;;4888355;29;20232;-80
2023/03/13 05:37:22;;;;;;;2.15;1.50;;;17.40;50.20;;;;;;4888250;29;20273;-80
2023/03/13 05:39:52;;;;;;;2.05;1.35;;;17.50;50.10;;;;;;4888726;29;20242;-80
2023/03/13 05:42:37;;;;;;;2.60;1.50;;;17.50;50.00;;;;;;4890241;29;20271;-80
2023/03/13 05:45:41;;;;;;;2.47;1.45;;;17.50;50.00;;;;;;4833545;29;20268;-81
2023/03/13 05:48:27;;;;;;;2.38;1.45;;;17.50;49.90;;;;;;4889069;29;20261;-81
2023/03/13 05:51:18;;;;;;;2.30;1.50;;;17.60;50.20;;;;;;4886660;29;20197;-81
2023/03/13 05:53:53;;;;;;;2.10;1.20;;;17.60;49.80;;;;;;4883374;29;20207;-81
2023/03/13 05:56:53;;;;;;;1.98;1.60;;;17.70;49.90;;;;;;4862952;29;20232;-81
2023/03/13 05:59:32;;;;;;;2.03;1.25;;;17.60;49.20;;;;;;4887259;29;20232;-81
2023/03/13 06:02:35;;;;;;;1.70;1.27;;;17.70;48.90;;;;;;4887598;29;20284;-81
2023/03/13 06:05:05;;;;;;;2.10;1.15;;;17.70;49.10;;;;;;4887953;29;20198;-81
2023/03/13 06:07:32;;;;;;;1.63;1.15;;;17.70;48.90;;;;;;4886920;29;20681;-82
2023/03/13 06:10:00;;;;;;;2.15;1.27;;;17.80;48.80;;;;;;4887310;29;20202;-82
2023/03/13 06:12:27;;;;;;;1.77;1.15;;;17.80;48.90;;;;;;4888900;29;20265;-83
2023/03/13 06:14:54;;;;;;;2.45;1.52;;;17.80;48.90;;;;;;4890117;29;20205;-83
2023/03/13 06:17:25;;;;;;;1.08;1.00;;;17.80;48.70;;;;;;4897199;29;20281;-83
2023/03/13 06:19:54;;;;;;;1.38;1.27;;;17.90;48.60;;;;;;4896014;29;20202;-83
2023/03/13 06:22:21;;;;;;;1.33;1.15;;;17.90;48.60;;;;;;4895051;29;20189;-81
2023/03/13 06:24:48;;;;;;;1.92;1.40;;;17.90;48.50;;;;;;4896035;29;20221;-82
2023/03/13 06:27:15;;;;;;;2.17;1.30;;;18.00;48.40;;;;;;4896485;29;20225;-82
2023/03/13 06:29:42;;;;;;;2.40;1.17;;;17.90;48.30;;;;;;4899582;29;20218;-82
2023/03/13 06:32:09;;;;;;;1.30;1.20;;;18.00;48.20;;;;;;4900244;29;20234;-82
2023/03/13 06:34:36;;;;;;;2.13;1.20;;;18.00;48.20;;;;;;4884698;29;20202;-82
2023/03/13 06:37:04;;;;;;;1.13;1.08;;;18.10;48.10;;;;;;4882611;29;20218;-82
2023/03/13 06:39:31;;;;;;;2.88;1.50;;;18.10;48.00;;;;;;4880651;29;20201;-81
2023/03/13 06:41:58;;;;;;;1.45;1.15;;;18.10;48.00;;;;;;4880087;29;20209;-83
2023/03/13 06:44:26;;;;;;;2.08;1.20;;;18.10;47.90;;;;;;4880295;29;20201;-83
2023/03/13 06:46:53;;;;;;;1.90;1.17;;;18.20;47.90;;;;;;4879121;29;20592;-82
2023/03/13 06:49:20;;;;;;;2.58;1.42;;;18.20;47.90;;;;;;4879437;29;20197;-82
2023/03/13 06:51:47;;;;;;;1.83;1.20;;;18.20;47.90;;;;;;4879463;29;20296;-81
2023/03/13 06:54:16;;;;;;;1.65;1.08;;;18.20;47.90;;;;;;4880808;29;20228;-83
2023/03/13 06:56:43;;;;;;;1.10;1.00;;;18.20;47.80;;;;;;4879681;29;20588;-82
2023/03/13 06:59:10;;;;;;;1.05;1.02;;;18.30;47.90;;;;;;4880422;29;20213;-83
2023/03/13 07:01:37;;;;;;;1.80;1.20;;;18.30;47.80;;;;;;4880461;29;20209;-83
2023/03/13 07:04:04;;;;;;;2.20;1.23;;;18.30;47.60;;;;;;4880341;29;20206;-83
2023/03/13 07:06:31;;;;;;;1.98;1.20;;;18.30;47.70;;;;;;4879428;29;20225;-83
2023/03/13 07:08:59;;;;;;;1.25;1.10;;;18.40;47.70;;;;;;4879881;29;20205;-83
2023/03/13 07:11:27;;;;;;;1.23;1.13;;;18.30;47.50;;;;;;4880694;29;20269;-82
2023/03/13 07:13:56;;;;;;;1.73;1.30;;;18.30;47.50;;;;;;4879833;29;20205;-83
2023/03/13 07:16:23;;;;;;;1.10;0.98;;;18.30;47.40;;;;;;4883133;29;20315;-83
2023/03/13 07:18:51;;;;;;;2.05;1.20;;;18.40;47.50;;;;;;4881062;29;20205;-83
2023/03/13 07:21:18;;;;;;;1.35;1.25;;;18.40;47.50;;;;;;4880467;29;20205;-82
2023/03/13 07:23:45;;;;;;;2.13;1.30;;;18.40;47.30;;;;;;4880652;29;20205;-83
2023/03/13 07:26:13;;;;;;;1.10;1.00;;;18.40;47.30;;;;;;4880334;29;20229;-83
2023/03/13 07:28:42;;;;;;;1.33;1.17;;;18.40;47.40;;;;;;4879184;29;20202;-81
2023/03/13 07:31:11;;;;;;;1.58;1.20;;;18.40;47.30;;;;;;4879203;29;20222;-81
2023/03/13 07:33:38;;;;;;;1.33;1.23;;;18.40;47.70;;;;;;4880448;29;20208;-81
2023/03/13 07:36:06;;;;;;;1.60;0.90;;;18.40;47.30;;;;;;4880761;29;20222;-81
2023/03/13 07:38:33;;;;;;;1.02;1.02;;;18.40;47.40;;;;;;4879573;29;20229;-81
2023/03/13 07:41:00;;;;;;;1.05;1.00;;;18.40;47.20;;;;;;4879641;29;20206;-81
2023/03/13 07:43:28;;;;;;;1.10;1.00;;;18.40;47.30;;;;;;4879672;29;20209;-81
2023/03/13 07:45:58;;;;;;;1.70;1.00;;;18.40;47.40;;;;;;4895487;29;20309;-81
2023/03/13 07:48:25;;;;;;;1.25;1.10;;;18.40;47.20;;;;;;4882518;29;20193;-80
2023/03/13 07:50:54;;;;;;;1.20;1.10;;;18.40;47.30;;;;;;4882826;29;20218;-80
2023/03/13 07:53:21;;;;;;;1.98;1.30;;;18.40;47.30;;;;;;4882534;29;20634;-80
2023/03/13 07:55:55;;;;;;;0.90;0.90;;;18.50;47.20;;;;;;4882649;29;20229;-80
2023/03/13 07:58:23;;;;;;;1.05;1.00;;;18.50;47.30;;;;;;4883097;29;20215;-80
2023/03/13 08:00:50;;;;;;;1.45;1.00;;;18.50;47.10;;;;;;4882464;29;20279;-80
2023/03/13 08:03:19;;;;;;;0.88;0.88;;;18.50;47.20;;;;;;4882335;29;20276;-80
2023/03/13 08:05:47;;;;;;;1.13;1.00;;;18.50;47.20;;;;;;4882562;29;20221;-80
2023/03/13 08:08:14;;;;;;;1.10;1.00;;;18.50;47.00;;;;;;4882702;29;20206;-80
2023/03/13 08:10:41;;;;;;;1.77;1.20;;;18.50;47.00;;;;;;4883154;29;20209;-80
2023/03/13 08:13:09;;;;;;;1.33;1.13;;;18.60;47.00;;;;;;4882195;29;20212;-80
2023/03/13 08:15:36;;;;;;;1.30;1.20;;;18.60;47.10;;;;;;4881959;29;20692;-80
2023/03/13 08:18:03;;;;;;;1.25;1.00;;;18.60;47.10;;;;;;4881998;29;20209;-80
2023/03/13 08:20:33;;;;;;;1.20;0.95;;;18.60;47.20;;;;;;4881948;29;20254;-81
2023/03/13 08:23:00;;;;;;;1.40;1.00;;;18.60;47.10;;;;;;4881927;29;20206;-81
2023/03/13 08:25:27;;;;;;;1.20;0.93;;;18.70;47.00;;;;;;4882690;29;20229;-81
2023/03/13 08:27:54;;;;;;;1.30;1.00;;;18.70;46.90;;;;;;4882025;29;20249;-81
2023/03/13 08:30:22;;;;;;;1.10;1.00;;;18.70;47.00;;;;;;4881847;29;20236;-81
2023/03/13 08:32:49;;;;;;;1.08;0.82;;;18.80;46.60;;;;;;4881950;29;20217;-81
2023/03/13 08:35:16;;;;;;;1.17;1.08;;;18.80;46.70;;;;;;4881746;29;20205;-81
2023/03/13 08:37:45;;;;;;;1.75;1.33;;;18.80;46.30;;;;;;4881768;29;20226;-81
2023/03/13 08:40:12;;;;;;;1.25;1.05;;;19.00;46.40;;;;;;4881933;29;20205;-80
2023/03/13 08:42:40;;;;;;;1.23;1.10;;;19.10;46.10;;;;;;4884296;29;20204;-80
2023/03/13 08:45:08;;;;;;;1.90;1.27;;;19.10;45.60;;;;;;4882646;29;20593;-80
2023/03/13 08:47:35;;;;;;;1.58;1.20;;;19.30;45.50;;;;;;4882444;29;20221;-80
2023/03/13 08:50:02;;;;;;;1.50;1.05;;;19.40;45.30;;;;;;4882498;29;20209;-79
2023/03/13 08:52:29;;;;;;;1.33;1.20;;;19.40;45.30;;;;;;4881999;29;20209;-80
2023/03/13 08:54:58;;;;;;;1.35;1.25;;;19.40;45.30;;;;;;4882041;29;20208;-80
2023/03/13 08:57:25;;;;;;;1.23;1.13;;;19.40;45.30;;;;;;4881883;29;20277;-80
2023/03/13 08:59:52;;;;;;;0.90;0.85;;;19.50;45.30;;;;;;4882146;29;20225;-80
2023/03/13 09:02:19;;;;;;;1.23;1.13;;;19.50;45.30;;;;;;4882026;29;20214;-80
2023/03/13 09:04:48;;;;;;;1.00;0.90;;;19.50;45.00;;;;;;4881950;29;20202;-80
2023/03/13 09:07:15;;;;;;;1.13;1.02;;;19.50;45.00;;;;;;4881714;29;20324;-80
2023/03/13 09:09:43;;;;;;;1.33;1.00;;;19.50;45.00;;;;;;4881267;29;20210;-80
2023/03/13 09:12:11;;;;;;;2.28;1.25;;;19.50;45.10;;;;;;4882264;29;20206;-80
2023/03/13 09:14:38;;;;;;;1.00;0.90;;;19.50;45.00;;;;;;4881367;29;20209;-80
2023/03/13 09:17:05;;;;;;;1.23;0.98;;;19.50;45.00;;;;;;4881810;29;20596;-81
2023/03/13 09:19:33;;;;;;;1.33;1.20;;;19.60;44.90;;;;;;4881628;29;20540;-81
2023/03/13 09:22:00;;;;;;;1.90;1.02;;;19.60;44.80;;;;;;4881252;29;20205;-81
2023/03/13 09:24:27;;;;;;;1.27;1.17;;;19.60;44.80;;;;;;4882127;29;20249;-81
2023/03/13 09:26:54;;;;;;;1.23;1.10;;;19.60;44.80;;;;;;4880931;29;20229;-81
2023/03/13 09:29:23;;;;;;;0.82;0.82;;;19.70;44.80;;;;;;4881209;29;20205;-81
2023/03/13 09:31:50;;;;;;;0.93;0.88;;;19.70;44.80;;;;;;4880949;29;20299;-81
2023/03/13 09:34:18;;;;;;;1.10;1.00;;;19.70;44.60;;;;;;4882530;29;20200;-81
2023/03/13 09:36:45;;;;;;;1.75;1.30;;;19.70;44.50;;;;;;4881458;29;20224;-80
2023/03/13 09:39:11;;;;;;;1.10;1.02;;;19.80;44.60;;;;;;4881554;29;20209;-81
2023/03/13 09:41:40;;;;;;;1.05;1.05;;;19.80;44.50;;;;;;4881288;29;20212;-81
2023/03/13 09:44:13;;;;;;;1.10;1.00;;;19.80;44.50;;;;;;4881147;29;20205;-81
2023/03/13 09:46:45;;;;;;;1.35;1.17;;;19.80;44.60;;;;;;4880909;29;20296;-81
2023/03/13 09:49:15;;;;;;;0.90;0.90;;;19.90;44.50;;;;;;4881483;29;20212;-81
2023/03/13 09:51:42;;;;;;;1.33;1.15;;;19.90;44.20;;;;;;4882249;29;20679;-80
2023/03/13 09:54:13;;;;;;;1.15;1.08;;;20.00;44.30;;;;;;4881744;29;20208;-80
2023/03/13 09:56:45;;;;;;;1.55;1.00;;;20.00;44.20;;;;;;4881190;29;20304;-80
2023/03/13 09:59:16;;;;;;;0.90;0.90;;;20.00;44.00;;;;;;4880996;29;20583;-80
2023/03/13 10:01:46;;;;;;;1.20;1.10;;;20.10;43.80;;;;;;4881037;29;20201;-80
2023/03/13 10:04:27;;;;;;;1.08;1.00;;;20.20;43.70;;;;;;4882204;29;20257;-80
2023/03/13 10:06:55;;;;;;;1.17;1.10;;;20.40;43.60;;;;;;4880832;29;20764;-80
2023/03/13 10:09:24;;;;;;;1.05;1.02;;;20.50;43.30;;;;;;4880725;29;20229;-81
2023/03/13 10:11:55;;;;;;;0.95;0.95;;;20.60;43.20;;;;;;4881889;29;20756;-80
2023/03/13 10:14:26;;;;;;;1.55;0.95;;;20.70;43.00;;;;;;4881292;29;20208;-80
2023/03/13 10:16:58;;;;;;;1.23;1.10;;;20.70;42.70;;;;;;4881580;29;20716;-81
2023/03/13 10:19:28;;;;;;;1.58;0.88;;;20.90;42.60;;;;;;4881355;29;20209;-81
2023/03/13 10:22:16;;;;;;;0.88;0.88;;;21.00;42.30;;;;;;4882108;29;20253;-80
2023/03/13 10:24:47;;;;;;;1.67;1.10;;;21.10;42.20;;;;;;4881349;29;20216;-80
2023/03/13 10:27:14;;;;;;;0.90;0.80;;;21.10;42.10;;;;;;4881524;29;20232;-80
2023/03/13 10:29:41;;;;;;;1.95;1.27;;;21.20;42.20;;;;;;4889483;29;20205;-80
2023/03/13 10:32:12;;;;;;;1.05;1.02;;;21.20;41.90;;;;;;4895998;29;20205;-80
2023/03/13 10:34:50;;;;;;;0.82;0.82;;;21.20;41.90;;;;;;4896987;29;20197;-80
2023/03/13 10:37:19;;;;;;;1.02;1.02;;;21.20;42.10;;;;;;4907693;29;20228;-80
2023/03/13 10:39:47;;;;;;;1.10;1.00;;;21.20;42.00;;;;;;4889260;29;20677;-80
2023/03/13 10:42:20;;;;;;;0.93;0.90;;;21.20;41.90;;;;;;4887157;29;20213;-80
2023/03/13 10:44:48;;;;;;;1.40;1.15;;;21.20;42.00;;;;;;4887542;29;20638;-80
2023/03/13 10:47:16;;;;;;;1.10;1.00;;;21.20;42.10;;;;;;4883181;29;20684;-81
2023/03/13 10:49:48;;;;;;;1.50;1.00;;;21.10;42.10;;;;;;4881564;29;20216;-81
2023/03/13 10:52:30;;;;;;;0.93;0.90;;;21.10;42.10;;;;;;4882814;29;20691;-81
2023/03/13 10:55:00;;;;;;;1.48;1.13;;;21.10;42.10;;;;;;4882074;29;20197;-81
2023/03/13 10:57:29;;;;;;;1.00;0.90;;;21.10;42.10;;;;;;4881455;29;20221;-81
2023/03/13 10:59:56;;;;;;;1.60;1.05;;;21.10;42.10;;;;;;4881728;29;20224;-81
2023/03/13 11:02:27;;;;;;;1.10;1.00;;;21.10;42.20;;;;;;4882188;29;20212;-81
2023/03/13 11:04:54;;;;;;;1.20;1.00;;;21.10;42.10;;;;;;4885615;29;20185;-81
2023/03/13 11:07:25;;;;;;;0.90;0.90;;;21.20;42.20;;;;;;4885985;29;20323;-81
2023/03/13 11:09:59;;;;;;;1.20;1.10;;;21.20;42.20;;;;;;4884780;29;20212;-81
2023/03/13 11:12:26;;;;;;;0.88;0.88;;;21.20;42.20;;;;;;4886457;29;20194;-81
2023/03/13 11:14:57;;;;;;;0.90;0.90;;;21.20;42.20;;;;;;4880208;29;20271;-81
2023/03/13 11:17:32;;;;;;;1.10;1.00;;;21.20;42.20;;;;;;4880314;29;20677;-81
2023/03/13 11:20:15;;;;;;;1.20;1.10;;;21.20;42.20;;;;;;4879930;29;20197;-81
2023/03/13 11:22:55;;;;;;;1.63;0.90;;;21.20;42.20;;;;;;4883245;29;20221;-80
2023/03/13 11:25:32;;;;;;;0.90;0.90;;;21.20;42.20;;;;;;4883686;29;20216;-81
2023/03/13 11:28:10;;;;;;;1.08;1.02;;;21.20;42.20;;;;;;4884439;29;20219;-81
2023/03/13 11:30:47;;;;;;;1.10;1.00;;;21.20;42.20;;;;;;4897631;29;20241;-81
2023/03/13 11:33:22;;;;;;;1.67;1.00;;;21.20;42.20;;;;;;4901880;29;20201;-81
2023/03/13 11:35:50;;;;;;;0.95;0.90;;;21.20;42.20;;;;;;4900964;29;20224;-81
2023/03/13 11:38:19;;;;;;;1.00;0.90;;;21.20;42.10;;;;;;4897219;29;20201;-81
2023/03/13 11:40:50;;;;;;;0.93;0.93;;;21.30;42.30;;;;;;4884521;29;20210;-81
2023/03/13 11:43:29;;;;;;;1.42;1.10;;;21.30;42.30;;;;;;4885100;29;20226;-81
2023/03/13 11:46:12;;;;;;;1.20;0.90;;;21.30;42.20;;;;;;4884911;29;20316;-81
2023/03/13 11:48:51;;;;;;;1.23;1.10;;;21.30;42.30;;;;;;4888159;29;20209;-81
2023/03/13 11:51:20;;;;;;;0.95;0.95;;;21.30;42.30;;;;;;4888224;29;20226;-81
2023/03/13 11:54:03;;;;;;;0.90;0.90;;;21.30;42.30;;;;;;4887484;29;20238;-81
2023/03/13 11:56:32;;;;;;;0.80;0.80;;;21.30;42.30;;;;;;4871454;29;20779;-82
2023/03/13 11:59:21;;;;;;;1.30;0.98;;;21.30;42.30;;;;;;4885639;29;20205;-82
2023/03/13 12:01:51;;;;;;;1.38;1.27;;;21.30;42.30;;;;;;4884462;29;20697;-83
2023/03/13 12:04:22;;;;;;;0.80;0.80;;;21.30;42.40;;;;;;4883786;29;20201;-83
2023/03/13 12:06:51;;;;;;;1.58;1.00;;;21.30;42.30;;;;;;4882936;29;20229;-81
2023/03/13 12:09:21;;;;;;;1.17;1.00;;;21.30;42.30;;;;;;4883347;29;20221;-80
2023/03/13 12:11:52;;;;;;;1.08;0.93;;;21.30;42.40;;;;;;4884409;29;20209;-81
2023/03/13 12:14:22;;;;;;;1.02;0.90;;;21.30;42.50;;;;;;4882870;29;20210;-81
2023/03/13 12:16:51;;;;;;;1.05;1.00;;;21.30;42.50;;;;;;4883239;29;20315;-81
2023/03/13 12:19:22;;;;;;;1.10;1.00;;;21.30;42.50;;;;;;4883035;29;20205;-81
2023/03/13 12:21:52;;;;;;;1.08;1.00;;;21.30;42.50;;;;;;4883093;29;20201;-81
2023/03/13 12:24:27;;;;;;;0.98;0.95;;;21.40;42.60;;;;;;4883772;29;20292;-81
2023/03/13 12:26:55;;;;;;;0.90;0.90;;;21.30;42.50;;;;;;4885884;29;20312;-81
2023/03/13 12:29:37;;;;;;;1.10;0.95;;;21.30;42.60;;;;;;4885367;29;20250;-80
2023/03/13 12:32:09;;;;;;;1.30;1.13;;;21.40;42.60;;;;;;4884743;29;20201;-81
2023/03/13 12:34:41;;;;;;;0.90;0.90;;;21.40;42.60;;;;;;4881490;29;20201;-81
2023/03/13 12:37:11;;;;;;;1.05;0.95;;;21.40;42.60;;;;;;4882646;29;20776;-81
2023/03/13 12:39:40;;;;;;;0.90;0.90;;;21.40;42.70;;;;;;4882380;29;20209;-81
2023/03/13 12:42:16;;;;;;;1.20;1.10;;;21.40;42.60;;;;;;4882119;29;20645;-80
2023/03/13 12:44:43;;;;;;;1.60;1.00;;;21.50;42.70;;;;;;4884009;29;20241;-80
2023/03/13 12:47:14;;;;;;;1.30;1.08;;;21.40;42.50;;;;;;4882259;29;20232;-80
2023/03/13 12:50:17;;;;;;;1.02;0.75;;;21.50;42.50;;;;;;4866657;29;20194;-80
2023/03/13 12:53:20;;;;;;;1.45;1.00;;;21.50;42.50;;;;;;4878764;29;20202;-80
2023/03/13 12:55:56;;;;;;;1.00;0.90;;;21.50;42.50;;;;;;4883304;29;20231;-80
2023/03/13 12:58:29;;;;;;;1.20;1.02;;;21.50;42.60;;;;;;4883023;29;20208;-80
2023/03/13 13:00:56;;;;;;;1.85;1.10;;;21.50;42.70;;;;;;4882940;29;20202;-80
2023/03/13 13:03:30;;;;;;;1.10;0.80;;;21.50;42.70;;;;;;4882983;29;20311;-80
2023/03/13 13:06:08;;;;;;;1.13;1.02;;;21.50;42.80;;;;;;4882037;29;20658;-81
2023/03/13 13:08:40;;;;;;;1.00;0.90;;;21.50;42.80;;;;;;4882513;29;20281;-81
2023/03/13 13:11:54;;;;;;;1.00;0.90;;;21.50;42.80;;;;;;4881879;29;20205;-81